createdAt,value
2023-03-17T00:00:16.772Z,100979.04
2023-03-17T00:05:41.486Z,100976.92
2023-03-17T00:10:46.384Z,100982.58
2023-03-17T00:16:03.825Z,100986.49
2023-03-17T00:21:13.451Z,100981.20
2023-03-17T00:26:19.958Z,100974.86
2023-03-17T00:31:26.278Z,100980.80
2023-03-17T00:36:33.975Z,100988.13
2023-03-17T00:41:40.284Z,100986.65
2023-03-17T00:46:45.065Z,100977.98
2023-03-17T00:51:50.409Z,100962.31
2023-03-17T00:56:54.275Z,100946.52
2023-03-17T01:01:58.374Z,100946.04
2023-03-17T01:07:02.768Z,100931.02
2023-03-17T01:12:12.934Z,100913.41
2023-03-17T01:17:20.676Z,100918.22
2023-03-17T01:22:24.823Z,100914.61
2023-03-17T01:27:29.515Z,100887.96
2023-03-17T01:32:34.305Z,100885.86
2023-03-17T01:37:39.904Z,100894.76
2023-03-17T01:42:54.664Z,100890.66
2023-03-17T01:48:00.358Z,100892.20
2023-03-17T01:53:05.630Z,100887.40
2023-03-17T01:58:10.259Z,100879.91
2023-03-17T02:03:14.678Z,100879.00
2023-03-17T02:08:18.886Z,100882.35
2023-03-17T02:13:24.067Z,100877.75
2023-03-17T02:18:30.077Z,100867.17
2023-03-17T02:23:34.922Z,100859.48
2023-03-17T02:28:39.918Z,100852.12
2023-03-17T02:33:44.238Z,100853.33
2023-03-17T02:38:49.204Z,100850.17
2023-03-17T02:43:54.180Z,100860.05
2023-03-17T02:48:59.127Z,100871.92
2023-03-17T02:54:03.810Z,100869.36
2023-03-17T02:59:08.872Z,100864.14
2023-03-17T03:04:13.825Z,100860.95
2023-03-17T03:09:20.052Z,100862.05
2023-03-17T03:14:25.230Z,100858.33
2023-03-17T03:19:30.293Z,100856.07
2023-03-17T03:24:34.886Z,100850.66
2023-03-17T03:29:38.867Z,100843.80
2023-03-17T03:34:42.981Z,100849.13
2023-03-17T03:39:48.133Z,100845.20
2023-03-17T03:44:54.115Z,100837.75
2023-03-17T03:49:59.207Z,100829.71
2023-03-17T03:55:03.310Z,100820.27
2023-03-17T04:00:09.941Z,100820.33
2023-03-17T04:05:21.401Z,100817.14
2023-03-17T04:10:26.765Z,100818.44
2023-03-17T04:15:31.092Z,100818.09
2023-03-17T04:20:35.812Z,100816.34
2023-03-17T04:25:40.440Z,100803.43
2023-03-17T04:30:46.644Z,100806.09
2023-03-17T04:35:51.740Z,100813.90
2023-03-17T04:40:57.144Z,100812.79
2023-03-17T04:46:01.527Z,100815.05
2023-03-17T04:51:05.626Z,100814.13
2023-03-17T04:56:10.905Z,100813.88
2023-03-17T05:01:14.803Z,100818.10
2023-03-17T05:06:20.166Z,100819.34
2023-03-17T05:11:25.491Z,100808.91
2023-03-17T05:16:29.879Z,100807.08
2023-03-17T05:21:34.698Z,100812.70
2023-03-17T05:26:39.153Z,100814.14
2023-03-17T05:31:44.150Z,100806.98
2023-03-17T05:36:48.320Z,100808.55
2023-03-17T05:41:53.190Z,100804.44
2023-03-17T05:47:00.961Z,100802.08
2023-03-17T05:52:05.797Z,100812.30
2023-03-17T05:57:09.727Z,100800.43
2023-03-17T06:02:14.826Z,100802.41
2023-03-17T06:07:18.724Z,100802.64
2023-03-17T06:12:23.356Z,100792.23
2023-03-17T06:17:27.742Z,100794.02
2023-03-17T06:22:33.224Z,100791.89
2023-03-17T06:27:38.284Z,100796.14
2023-03-17T06:32:42.083Z,100796.45
2023-03-17T06:37:49.653Z,100789.79
2023-03-17T06:42:55.419Z,100790.17
2023-03-17T06:48:00.574Z,100796.77
2023-03-17T06:53:07.695Z,100797.80
2023-03-17T06:58:13.594Z,100791.52
2023-03-17T07:03:18.984Z,100793.23
2023-03-17T07:08:23.282Z,100785.06
2023-03-17T07:13:27.726Z,100784.08
2023-03-17T07:18:34.781Z,100786.76
2023-03-17T07:23:39.944Z,100789.98
2023-03-17T07:28:43.796Z,100795.86
2023-03-17T07:33:48.509Z,100795.57
2023-03-17T07:38:52.917Z,100786.39
2023-03-17T07:43:58.210Z,100783.70
2023-03-17T07:49:02.824Z,100775.83
2023-03-17T07:54:07.868Z,100770.17
2023-03-17T07:59:12.676Z,100767.84
2023-03-17T08:04:17.130Z,100771.54
2023-03-17T08:09:24.700Z,100772.78
2023-03-17T08:14:29.062Z,100763.33
2023-03-17T08:19:33.511Z,100763.33
2023-03-17T08:24:40.790Z,100752.11
2023-03-17T08:29:49.245Z,100744.48
2023-03-17T08:34:54.822Z,100739.58
2023-03-17T08:39:59.318Z,100737.58
2023-03-17T08:45:04.004Z,100732.69
2023-03-17T08:50:11.751Z,100727.05
2023-03-17T08:55:16.664Z,100724.23
2023-03-17T09:00:21.782Z,100728.29
2023-03-17T09:05:26.941Z,100739.64
2023-03-17T09:10:31.892Z,100743.81
2023-03-17T09:15:36.117Z,100737.20
2023-03-17T09:20:40.720Z,100734.88
2023-03-17T09:25:45.198Z,100736.79
2023-03-17T09:30:48.934Z,100742.83
2023-03-17T09:35:55.964Z,100755.38
2023-03-17T09:41:31.828Z,100738.02
2023-03-17T09:46:59.298Z,100710.27
2023-03-17T09:52:04.458Z,100715.03
2023-03-17T09:57:16.811Z,100734.50
2023-03-17T10:02:28.051Z,100734.48
2023-03-17T10:07:59.741Z,100710.46
2023-03-17T10:13:25.386Z,100715.68
2023-03-17T10:18:53.495Z,100704.45
2023-03-17T10:23:58.321Z,100706.00
2023-03-17T10:29:06.293Z,100694.20
2023-03-17T10:34:22.093Z,100684.38
2023-03-17T10:39:29.319Z,100685.69
2023-03-17T10:44:57.341Z,100691.27
2023-03-17T10:50:32.643Z,100697.88
2023-03-17T10:55:44.976Z,100689.99
2023-03-17T11:01:22.031Z,100669.77
2023-03-17T11:06:41.501Z,100657.83
2023-03-17T11:11:50.438Z,100632.30
2023-03-17T11:16:56.011Z,100611.27
2023-03-17T11:22:14.836Z,100610.50
2023-03-17T11:27:34.320Z,100614.06
2023-03-17T11:32:56.841Z,100606.64
2023-03-17T11:38:24.718Z,100594.84
2023-03-17T11:43:50.181Z,100588.45
2023-03-17T11:49:24.096Z,100577.05
2023-03-17T11:54:54.269Z,100563.40
2023-03-17T12:00:17.384Z,100563.46
2023-03-17T12:05:25.402Z,100553.18
2023-03-17T12:10:45.865Z,100543.79
2023-03-17T12:16:38.753Z,100527.38
2023-03-17T12:22:00.289Z,100515.79
2023-03-17T12:27:06.618Z,100506.41
2023-03-17T12:32:13.311Z,100494.64
2023-03-17T12:37:19.506Z,100486.33
2023-03-17T12:42:39.119Z,100489.35
2023-03-17T12:48:20.369Z,100495.74
2023-03-17T12:53:49.161Z,100491.26
2023-03-17T12:58:55.718Z,100484.26
2023-03-17T13:04:22.741Z,100482.02
2023-03-17T13:09:39.935Z,100473.27
2023-03-17T13:14:47.948Z,100469.98
2023-03-17T13:20:40.574Z,100468.29
2023-03-17T13:25:53.952Z,100470.42
2023-03-17T13:31:16.805Z,100460.19
2023-03-17T13:36:32.306Z,100452.98
2023-03-17T13:42:15.738Z,100448.75
2023-03-17T13:47:24.602Z,100437.70
2023-03-17T13:52:33.440Z,100434.61
2023-03-17T13:57:38.799Z,100439.89
2023-03-17T14:02:43.974Z,100443.23
2023-03-17T14:08:01.376Z,100434.34
2023-03-17T14:13:25.280Z,100435.57
2023-03-17T14:18:34.106Z,100435.81
2023-03-17T14:23:37.807Z,100432.93
2023-03-17T14:28:42.440Z,100424.52
2023-03-17T14:33:46.600Z,100426.20
2023-03-17T14:38:52.951Z,100420.91
2023-03-17T14:44:01.847Z,100409.21
2023-03-17T14:49:21.603Z,100399.59
2023-03-17T14:54:30.250Z,100396.09
2023-03-17T14:59:37.565Z,100384.88
2023-03-17T15:04:53.894Z,100382.09
2023-03-17T15:10:02.810Z,100382.77
2023-03-17T15:15:23.024Z,100372.25
2023-03-17T15:20:29.439Z,100368.34
2023-03-17T15:25:37.978Z,100363.73
2023-03-17T15:30:48.859Z,100356.96
2023-03-17T15:35:53.336Z,100354.95
2023-03-17T15:41:04.894Z,100353.13
2023-03-17T15:46:22.636Z,100356.23
2023-03-17T15:51:27.134Z,100358.06
2023-03-17T15:56:31.512Z,100359.52
2023-03-17T16:01:37.184Z,100358.98
2023-03-17T16:06:42.168Z,100359.99
2023-03-17T16:11:46.105Z,100362.89
2023-03-17T16:16:49.746Z,100353.04
2023-03-17T16:21:55.639Z,100344.46
2023-03-17T16:26:59.383Z,100347.02
2023-03-17T16:32:03.227Z,100355.47
2023-03-17T16:37:15.941Z,100364.65
2023-03-17T16:42:25.122Z,100362.53
2023-03-17T16:47:30.712Z,100364.96
2023-03-17T16:52:35.184Z,100361.08
2023-03-17T16:57:39.812Z,100349.80
2023-03-17T17:02:49.761Z,100345.30
2023-03-17T17:07:57.174Z,100344.93
2023-03-17T17:13:02.648Z,100348.95
2023-03-17T17:18:19.330Z,100350.10
2023-03-17T17:23:27.242Z,100352.74
2023-03-17T17:28:32.646Z,100357.20
2023-03-17T17:33:37.810Z,100356.77
2023-03-17T17:38:42.813Z,100358.45
2023-03-17T17:43:51.851Z,100357.73
2023-03-17T17:49:03.007Z,100363.08
2023-03-17T17:54:08.983Z,100364.73
2023-03-17T17:59:15.318Z,100372.38
2023-03-17T18:04:21.430Z,100376.79
2023-03-17T18:09:31.911Z,100367.92
2023-03-17T18:14:37.515Z,100366.34
2023-03-17T18:19:45.065Z,100365.89
2023-03-17T18:24:50.912Z,100354.08
2023-03-17T18:30:05.781Z,100349.80
2023-03-17T18:35:14.334Z,100347.85
2023-03-17T18:40:22.871Z,100348.36
2023-03-17T18:45:30.322Z,100350.85
2023-03-17T18:50:37.982Z,100347.80
2023-03-17T18:55:52.161Z,100353.41
2023-03-17T19:01:03.329Z,100358.02
2023-03-17T19:06:16.797Z,100355.20
2023-03-17T19:11:27.144Z,100355.88
2023-03-17T19:16:34.202Z,100356.17
2023-03-17T19:21:48.743Z,100352.27
2023-03-17T19:26:55.840Z,100356.43
2023-03-17T19:32:01.533Z,100358.77
2023-03-17T19:37:09.121Z,100348.48
2023-03-17T19:42:15.307Z,100348.95
2023-03-17T19:47:24.621Z,100347.96
2023-03-17T19:52:31.487Z,100355.70
2023-03-17T19:57:38.474Z,100358.02
2023-03-17T20:02:44.778Z,100363.34
2023-03-17T20:07:53.372Z,100362.33
2023-03-17T20:12:59.565Z,100357.77
2023-03-17T20:18:05.658Z,100353.81
2023-03-17T20:23:13.872Z,100341.92
2023-03-17T20:28:19.886Z,100342.67
2023-03-17T20:33:27.343Z,100333.86
2023-03-17T20:38:37.286Z,100327.56
2023-03-17T20:43:46.486Z,100327.55
2023-03-17T20:48:59.513Z,100321.88
2023-03-17T20:54:05.945Z,100326.31
2023-03-17T20:59:13.770Z,100326.05
2023-03-17T21:04:21.415Z,100326.45
2023-03-17T21:09:27.161Z,100324.52
2023-03-17T21:14:33.916Z,100316.65
2023-03-17T21:19:51.446Z,100309.14
2023-03-17T21:25:05.875Z,100306.42
2023-03-17T21:30:33.222Z,100304.75
2023-03-17T21:35:52.216Z,100300.42
2023-03-17T21:47:08.425Z,100302.98
2023-03-17T21:52:35.998Z,100302.25
2023-03-17T21:57:56.467Z,100295.23
2023-03-17T22:03:08.082Z,100279.23
2023-03-17T22:08:28.372Z,100280.22
2023-03-17T22:13:43.417Z,100283.99
2023-03-17T22:18:56.861Z,100290.52
2023-03-17T22:24:18.523Z,100284.69
2023-03-17T22:29:35.829Z,100282.27
2023-03-17T22:34:47.967Z,100280.43
2023-03-17T22:39:53.749Z,100274.64
2023-03-17T22:45:00.480Z,100273.62
2023-03-17T22:50:11.141Z,100268.14
2023-03-17T22:55:19.512Z,100255.83
2023-03-17T23:00:26.793Z,100254.60
2023-03-17T23:05:31.203Z,100251.91
2023-03-17T23:10:34.936Z,100255.05
2023-03-17T23:15:39.313Z,100256.15
2023-03-17T23:20:43.781Z,100251.86
2023-03-17T23:25:48.069Z,100255.03
2023-03-17T23:30:53.239Z,100251.86
2023-03-17T23:35:57.745Z,100250.14
2023-03-17T23:41:02.544Z,100247.38
2023-03-17T23:46:06.361Z,100250.08
2023-03-17T23:51:12.769Z,100249.65
2023-03-17T23:56:16.654Z,100252.55
